createdAt,value
2023-02-27T00:01:06.988Z,0.98
2023-02-27T00:03:33.873Z,1.12
2023-02-27T00:06:00.466Z,1.48
2023-02-27T00:08:27.212Z,1.33
2023-02-27T00:10:53.820Z,1.14
2023-02-27T00:13:20.334Z,1.23
2023-02-27T00:15:48.467Z,1.16
2023-02-27T00:18:14.980Z,1.17
2023-02-27T00:20:44.411Z,1.20
2023-02-27T00:23:10.977Z,0.80
2023-02-27T00:25:37.449Z,0.85
2023-02-27T00:28:04.726Z,0.98
2023-02-27T00:30:31.711Z,0.85
2023-02-27T00:32:58.217Z,0.96
2023-02-27T00:35:24.904Z,0.94
2023-02-27T00:37:51.423Z,1.03
2023-02-27T00:40:18.129Z,0.91
2023-02-27T00:42:44.631Z,0.91
2023-02-27T00:45:11.325Z,1.04
2023-02-27T00:47:37.969Z,0.93
2023-02-27T00:50:14.083Z,0.83
2023-02-27T00:52:40.664Z,0.76
2023-02-27T00:55:07.844Z,0.58
2023-02-27T00:57:34.373Z,0.78
2023-02-27T01:00:01.347Z,0.79
2023-02-27T01:02:27.865Z,0.83
2023-02-27T01:04:54.545Z,0.66
2023-02-27T01:07:21.058Z,0.84
2023-02-27T01:09:47.547Z,0.92
2023-02-27T01:12:14.146Z,0.90
2023-02-27T01:14:40.712Z,0.87
2023-02-27T01:17:07.256Z,0.99
2023-02-27T01:19:33.751Z,0.84
2023-02-27T01:22:00.482Z,0.94
2023-02-27T01:24:27.076Z,0.71
2023-02-27T01:26:53.639Z,0.75
2023-02-27T01:29:20.194Z,0.97
2023-02-27T01:31:46.918Z,0.69
2023-02-27T01:34:13.594Z,0.85
2023-02-27T01:36:40.168Z,0.93
2023-02-27T01:39:06.681Z,0.99
2023-02-27T01:41:33.200Z,1.01
2023-02-27T01:44:03.941Z,0.90
2023-02-27T01:46:31.937Z,1.11
2023-02-27T01:49:07.523Z,1.06
2023-02-27T01:51:42.962Z,1.10
2023-02-27T01:54:12.414Z,1.18
2023-02-27T01:56:39.264Z,1.22
2023-02-27T01:59:09.132Z,1.41
2023-02-27T02:01:36.172Z,1.23
2023-02-27T02:04:16.717Z,1.25
2023-02-27T02:06:48.670Z,1.41
2023-02-27T02:09:19.889Z,1.47
2023-02-27T02:11:46.425Z,1.13
2023-02-27T02:14:12.957Z,1.37
2023-02-27T02:16:54.837Z,1.26
2023-02-27T02:19:49.140Z,1.18
2023-02-27T02:23:07.316Z,1.41
2023-02-27T02:26:07.527Z,1.60
2023-02-27T02:28:54.091Z,1.16
2023-02-27T02:31:46.131Z,1.51
2023-02-27T02:35:00.119Z,1.62
2023-02-27T02:38:12.803Z,1.42
2023-02-27T02:40:49.629Z,1.25
2023-02-27T02:43:29.573Z,1.20
2023-02-27T02:46:11.248Z,1.55
2023-02-27T02:49:03.998Z,1.16
2023-02-27T02:51:41.749Z,1.23
2023-02-27T02:54:30.766Z,1.45
2023-02-27T02:57:06.604Z,1.37
2023-02-27T02:59:38.426Z,1.05
2023-02-27T03:02:13.939Z,1.04
2023-02-27T03:04:52.011Z,1.12
2023-02-27T03:07:44.197Z,0.95
2023-02-27T03:10:28.581Z,1.27
2023-02-27T03:13:08.554Z,1.27
2023-02-27T03:15:58.447Z,1.39
2023-02-27T03:18:40.737Z,1.06
2023-02-27T03:21:16.247Z,1.30
2023-02-27T03:23:47.039Z,1.40
2023-02-27T03:26:23.214Z,1.21
2023-02-27T03:29:03.440Z,1.10
2023-02-27T03:31:45.196Z,1.10
2023-02-27T03:34:30.235Z,0.98
2023-02-27T03:36:59.548Z,1.04
2023-02-27T03:39:45.762Z,0.85
2023-02-27T03:42:42.129Z,0.91
2023-02-27T03:45:32.194Z,0.98
2023-02-27T03:48:02.069Z,0.88
2023-02-27T03:50:28.778Z,1.08
2023-02-27T03:52:56.580Z,0.82
2023-02-27T03:55:30.297Z,0.95
2023-02-27T03:57:57.327Z,1.25
2023-02-27T04:00:26.316Z,1.24
2023-02-27T04:02:57.174Z,1.09
2023-02-27T04:05:23.923Z,1.25
2023-02-27T04:08:08.831Z,1.23
2023-02-27T04:10:52.105Z,1.23
2023-02-27T04:13:42.733Z,0.99
2023-02-27T04:16:22.239Z,1.06
2023-02-27T04:18:48.705Z,1.25
2023-02-27T04:21:49.198Z,1.20
2023-02-27T04:24:18.301Z,1.23
2023-02-27T04:27:06.925Z,1.32
2023-02-27T04:29:49.124Z,1.26
2023-02-27T04:32:52.045Z,1.46
2023-02-27T04:35:47.030Z,1.55
2023-02-27T04:38:34.561Z,1.41
2023-02-27T04:41:12.166Z,1.34
2023-02-27T04:43:42.617Z,1.47
2023-02-27T04:46:15.160Z,1.32
2023-02-27T04:48:49.207Z,1.03
2023-02-27T04:51:45.665Z,1.37
2023-02-27T04:54:17.650Z,1.18
2023-02-27T04:56:53.665Z,1.04
2023-02-27T04:59:28.504Z,0.56
2023-02-27T05:02:06.240Z,0.96
2023-02-27T05:04:38.040Z,0.74
2023-02-27T05:07:10.921Z,0.98
2023-02-27T05:09:54.300Z,1.05
2023-02-27T05:12:35.193Z,0.95
2023-02-27T05:15:07.724Z,0.91
2023-02-27T05:17:48.911Z,0.81
2023-02-27T05:20:17.403Z,0.74
2023-02-27T05:22:55.525Z,0.51
2023-02-27T05:25:51.237Z,0.79
2023-02-27T05:28:36.720Z,0.77
2023-02-27T05:31:12.245Z,0.57
2023-02-27T05:33:54.304Z,0.84
2023-02-27T05:36:30.523Z,0.95
2023-02-27T05:39:04.981Z,1.02
2023-02-27T05:41:57.486Z,1.14
2023-02-27T05:44:39.999Z,0.93
2023-02-27T05:47:14.473Z,1.04
2023-02-27T05:49:51.981Z,1.13
2023-02-27T05:52:24.242Z,0.94
2023-02-27T05:55:02.569Z,1.03
2023-02-27T05:57:43.973Z,0.91
2023-02-27T06:00:54.070Z,1.02
2023-02-27T06:03:21.018Z,1.36
2023-02-27T06:05:51.062Z,1.17
2023-02-27T06:08:17.681Z,1.46
2023-02-27T06:10:44.325Z,1.32
2023-02-27T06:13:10.868Z,1.30
2023-02-27T06:15:37.491Z,1.28
2023-02-27T06:18:04.750Z,1.39
2023-02-27T06:20:31.337Z,1.32
2023-02-27T06:22:57.822Z,1.53
2023-02-27T06:25:24.882Z,1.45
2023-02-27T06:27:51.364Z,1.59
2023-02-27T06:30:18.139Z,1.68
2023-02-27T06:32:44.623Z,1.69
2023-02-27T06:35:11.327Z,1.79
2023-02-27T06:37:38.301Z,1.85
2023-02-27T06:40:06.316Z,2.08
2023-02-27T06:42:32.900Z,1.87
2023-02-27T06:44:59.441Z,1.86
2023-02-27T06:47:26.005Z,1.27
2023-02-27T06:49:54.473Z,1.54
2023-02-27T06:52:21.040Z,1.61
2023-02-27T06:54:47.628Z,1.23
2023-02-27T06:57:14.200Z,0.98
2023-02-27T06:59:40.719Z,1.34
2023-02-27T07:02:07.431Z,1.17
2023-02-27T07:04:33.931Z,1.24
2023-02-27T07:07:35.454Z,1.39
2023-02-27T07:09:47.138Z,1.58
2023-02-27T07:12:13.642Z,1.79
2023-02-27T07:14:40.232Z,1.62
2023-02-27T07:17:06.823Z,1.37
2023-02-27T07:19:33.867Z,1.53
2023-02-27T07:22:00.373Z,1.45
2023-02-27T07:24:26.865Z,1.50
2023-02-27T07:26:53.474Z,1.26
2023-02-27T07:29:19.980Z,1.47
2023-02-27T07:31:46.604Z,1.56
2023-02-27T07:34:13.127Z,1.51
2023-02-27T07:36:39.741Z,1.39
2023-02-27T07:39:07.037Z,1.66
2023-02-27T07:41:33.547Z,1.62
2023-02-27T07:44:00.140Z,1.51
2023-02-27T07:46:26.994Z,1.80
2023-02-27T07:48:54.223Z,1.60
2023-02-27T07:51:20.963Z,1.78
2023-02-27T07:53:47.710Z,2.03
2023-02-27T07:56:14.289Z,2.20
2023-02-27T07:58:40.802Z,2.25
2023-02-27T08:01:07.408Z,2.56
2023-02-27T08:03:33.926Z,2.34
2023-02-27T08:06:02.342Z,2.62
2023-02-27T08:08:29.522Z,2.26
2023-02-27T08:10:56.038Z,2.20
2023-02-27T08:13:42.374Z,2.21
2023-02-27T08:16:09.159Z,2.67
2023-02-27T08:18:35.682Z,2.46
2023-02-27T08:21:02.287Z,2.59
2023-02-27T08:23:28.852Z,2.89
2023-02-27T08:25:55.333Z,2.57
2023-02-27T08:28:24.809Z,2.54
2023-02-27T08:30:51.453Z,2.42
2023-02-27T08:33:17.964Z,2.41
2023-02-27T08:35:44.487Z,2.67
2023-02-27T08:38:11.119Z,2.90
2023-02-27T08:40:37.778Z,3.07
2023-02-27T08:43:04.273Z,2.98
2023-02-27T08:45:30.867Z,2.93
2023-02-27T08:47:57.408Z,3.24
2023-02-27T08:50:24.030Z,2.74
2023-02-27T08:52:50.549Z,2.99
2023-02-27T08:55:17.126Z,3.04
2023-02-27T08:57:43.646Z,3.01
2023-02-27T09:00:10.785Z,3.34
2023-02-27T09:02:37.560Z,3.59
2023-02-27T09:05:04.388Z,3.59
2023-02-27T09:07:30.866Z,3.69
2023-02-27T09:09:57.366Z,3.75
2023-02-27T09:12:23.982Z,3.24
2023-02-27T09:14:57.927Z,3.69
2023-02-27T09:17:24.460Z,3.85
2023-02-27T09:19:50.968Z,4.03
2023-02-27T09:22:18.777Z,3.69
2023-02-27T09:24:45.459Z,3.48
2023-02-27T09:27:17.506Z,3.60
2023-02-27T09:29:44.008Z,3.96
2023-02-27T09:32:10.678Z,3.71
2023-02-27T09:34:37.189Z,3.88
2023-02-27T09:37:03.876Z,3.98
2023-02-27T09:39:30.458Z,4.20
2023-02-27T09:42:06.024Z,4.25
2023-02-27T09:44:46.677Z,3.79
2023-02-27T09:47:28.884Z,4.20
2023-02-27T09:50:01.213Z,4.56
2023-02-27T09:52:30.919Z,4.58
2023-02-27T09:54:57.593Z,5.03
2023-02-27T09:57:36.483Z,5.02
2023-02-27T10:00:15.890Z,4.61
2023-02-27T10:03:25.010Z,4.91
2023-02-27T10:06:26.410Z,4.69
2023-02-27T10:09:05.245Z,5.03
2023-02-27T10:11:51.712Z,4.49
2023-02-27T10:14:38.237Z,4.76
2023-02-27T10:17:15.552Z,4.60
2023-02-27T10:19:46.624Z,4.64
2023-02-27T10:22:23.962Z,4.69
2023-02-27T10:25:18.090Z,5.25
2023-02-27T10:27:58.653Z,4.91
2023-02-27T10:30:30.525Z,4.59
2023-02-27T10:33:15.584Z,4.62
2023-02-27T10:35:46.249Z,4.66
2023-02-27T10:38:25.006Z,4.92
2023-02-27T10:40:52.306Z,3.95
2023-02-27T10:43:21.168Z,4.45
2023-02-27T10:45:47.822Z,4.40
2023-02-27T10:48:16.577Z,4.37
2023-02-27T10:50:46.028Z,4.61
2023-02-27T10:53:26.963Z,4.66
2023-02-27T10:56:07.643Z,4.87
2023-02-27T10:58:36.830Z,4.79
2023-02-27T11:01:11.376Z,4.59
2023-02-27T11:03:43.888Z,4.36
2023-02-27T11:06:24.428Z,4.70
2023-02-27T11:09:11.051Z,4.52
2023-02-27T11:11:37.693Z,5.06
2023-02-27T11:14:19.214Z,5.27
2023-02-27T11:16:52.212Z,4.86
2023-02-27T11:19:30.311Z,4.51
2023-02-27T11:22:16.966Z,3.96
2023-02-27T11:24:43.469Z,3.98
2023-02-27T11:27:25.462Z,4.48
2023-02-27T11:30:01.312Z,4.28
2023-02-27T11:32:43.051Z,4.31
2023-02-27T11:35:38.206Z,4.54
2023-02-27T11:38:44.459Z,4.99
2023-02-27T11:41:13.541Z,5.07
2023-02-27T11:43:49.803Z,4.54
2023-02-27T11:46:46.509Z,4.45
2023-02-27T11:49:34.697Z,4.00
2023-02-27T11:52:17.011Z,4.07
2023-02-27T11:54:58.478Z,4.11
2023-02-27T11:57:38.583Z,4.63
2023-02-27T12:00:17.107Z,4.07
2023-02-27T12:02:55.586Z,4.22
2023-02-27T12:05:31.737Z,4.68
2023-02-27T12:08:38.185Z,4.38
2023-02-27T12:11:29.186Z,4.56
2023-02-27T12:14:04.511Z,4.71
2023-02-27T12:16:48.089Z,4.97
2023-02-27T12:19:30.311Z,4.87
2023-02-27T12:22:04.074Z,4.68
2023-02-27T12:24:47.373Z,4.79
2023-02-27T12:27:24.772Z,4.84
2023-02-27T12:29:58.583Z,4.80
2023-02-27T12:32:32.659Z,4.35
2023-02-27T12:35:11.761Z,4.19
2023-02-27T12:37:38.649Z,4.32
2023-02-27T12:40:06.136Z,4.63
2023-02-27T12:43:02.649Z,4.66
2023-02-27T12:45:43.420Z,4.51
2023-02-27T12:48:27.118Z,4.67
2023-02-27T12:51:08.762Z,4.37
2023-02-27T12:54:09.999Z,5.00
2023-02-27T12:57:05.053Z,5.31
2023-02-27T12:59:40.291Z,5.50
2023-02-27T13:02:24.561Z,5.91
2023-02-27T13:05:21.600Z,6.14
2023-02-27T13:08:01.232Z,5.81
2023-02-27T13:10:36.230Z,5.67
2023-02-27T13:13:34.782Z,6.00
2023-02-27T13:16:12.247Z,6.05
2023-02-27T13:18:43.746Z,6.01
2023-02-27T13:21:25.154Z,6.01
2023-02-27T13:24:23.585Z,5.92
2023-02-27T13:27:04.381Z,5.64
2023-02-27T13:29:40.213Z,5.93
2023-02-27T13:32:49.692Z,6.20
2023-02-27T13:35:23.406Z,6.43
2023-02-27T13:37:56.655Z,6.73
2023-02-27T13:40:33.470Z,6.99
2023-02-27T13:43:21.682Z,6.80
2023-02-27T13:45:56.932Z,7.24
2023-02-27T13:48:41.138Z,7.60
2023-02-27T13:51:39.726Z,6.77
2023-02-27T13:54:28.311Z,5.68
2023-02-27T13:56:54.734Z,5.85
2023-02-27T13:59:37.476Z,5.82
2023-02-27T14:02:30.351Z,6.16
2023-02-27T14:05:04.873Z,6.40
2023-02-27T14:07:53.423Z,6.63
2023-02-27T14:10:28.145Z,6.72
2023-02-27T14:12:55.359Z,6.15
2023-02-27T14:15:31.231Z,6.82
2023-02-27T14:18:14.175Z,7.23
2023-02-27T14:20:47.218Z,7.07
2023-02-27T14:23:16.879Z,7.01
2023-02-27T14:25:57.761Z,6.49
2023-02-27T14:28:48.368Z,6.79
2023-02-27T14:31:38.890Z,7.23
2023-02-27T14:34:06.180Z,7.56
2023-02-27T14:36:41.559Z,8.04
2023-02-27T14:39:25.974Z,8.61
2023-02-27T14:41:58.419Z,9.10
2023-02-27T14:44:27.976Z,8.74
2023-02-27T14:46:58.475Z,8.82
2023-02-27T14:49:26.574Z,9.58
2023-02-27T14:51:53.052Z,9.10
2023-02-27T14:54:25.259Z,8.31
2023-02-27T14:57:00.979Z,8.23
2023-02-27T14:59:31.681Z,8.12
2023-02-27T15:02:00.254Z,8.83
2023-02-27T15:04:28.714Z,9.37
2023-02-27T15:06:57.968Z,8.53
2023-02-27T15:09:37.038Z,9.42
2023-02-27T15:12:05.056Z,9.28
2023-02-27T15:14:39.305Z,8.78
2023-02-27T15:17:24.058Z,9.12
2023-02-27T15:19:55.002Z,8.56
2023-02-27T15:22:37.985Z,8.27
2023-02-27T15:25:06.118Z,8.53
2023-02-27T15:27:35.696Z,8.49
2023-02-27T15:30:02.231Z,8.75
2023-02-27T15:32:42.487Z,9.05
2023-02-27T15:35:20.880Z,9.41
2023-02-27T15:37:56.722Z,9.38
2023-02-27T15:40:27.924Z,9.26
2023-02-27T15:42:56.865Z,9.38
2023-02-27T15:45:30.114Z,9.39
2023-02-27T15:47:57.730Z,8.33
2023-02-27T15:50:33.557Z,8.53
2023-02-27T15:53:10.832Z,8.61
2023-02-27T15:55:42.623Z,8.99
2023-02-27T15:58:24.183Z,8.32
2023-02-27T16:01:08.168Z,7.18
2023-02-27T16:03:43.983Z,7.63
2023-02-27T16:06:18.988Z,7.64
2023-02-27T16:09:03.475Z,7.02
2023-02-27T16:11:36.476Z,6.19
2023-02-27T16:14:03.872Z,6.41
2023-02-27T16:16:36.928Z,6.75
2023-02-27T16:19:25.861Z,6.63
2023-02-27T16:22:12.332Z,6.26
2023-02-27T16:24:39.038Z,5.75
2023-02-27T16:27:06.530Z,5.59
2023-02-27T16:29:39.408Z,5.44
2023-02-27T16:32:06.142Z,5.34
2023-02-27T16:34:46.569Z,5.69
2023-02-27T16:37:21.449Z,5.46
2023-02-27T16:39:50.652Z,5.26
2023-02-27T16:42:20.001Z,5.15
2023-02-27T16:44:46.865Z,5.07
2023-02-27T16:47:13.394Z,4.98
2023-02-27T16:49:40.225Z,5.08
2023-02-27T16:52:10.885Z,4.09
2023-02-27T16:54:37.428Z,4.33
2023-02-27T16:57:04.240Z,3.91
2023-02-27T16:59:33.991Z,4.08
2023-02-27T17:02:03.823Z,4.10
2023-02-27T17:04:30.539Z,3.92
2023-02-27T17:06:59.554Z,3.59
2023-02-27T17:09:26.279Z,3.40
2023-02-27T17:11:53.355Z,3.49
2023-02-27T17:14:19.851Z,3.50
2023-02-27T17:16:46.359Z,3.41
2023-02-27T17:19:13.348Z,3.62
2023-02-27T17:21:40.595Z,3.72
2023-02-27T17:24:08.292Z,2.99
2023-02-27T17:26:36.096Z,3.12
2023-02-27T17:29:02.930Z,3.17
2023-02-27T17:31:29.748Z,2.85
2023-02-27T17:33:56.404Z,2.89
2023-02-27T17:36:23.241Z,3.39
2023-02-27T17:38:58.021Z,3.28
2023-02-27T17:41:25.192Z,3.15
2023-02-27T17:43:53.686Z,3.14
2023-02-27T17:46:21.004Z,3.64
2023-02-27T17:48:47.672Z,3.62
2023-02-27T17:51:16.594Z,3.69
2023-02-27T17:53:43.595Z,3.76
2023-02-27T17:56:12.323Z,3.53
2023-02-27T17:58:38.865Z,3.40
2023-02-27T18:01:12.551Z,3.46
2023-02-27T18:03:39.949Z,3.40
2023-02-27T18:06:07.317Z,3.01
2023-02-27T18:08:34.415Z,3.25
2023-02-27T18:11:01.055Z,3.11
2023-02-27T18:13:28.660Z,2.82
2023-02-27T18:15:56.680Z,2.96
2023-02-27T18:18:24.061Z,2.69
2023-02-27T18:21:18.976Z,3.05
2023-02-27T18:23:46.770Z,2.81
2023-02-27T18:26:28.396Z,3.03
2023-02-27T18:28:57.799Z,2.86
2023-02-27T18:31:28.675Z,2.68
2023-02-27T18:33:55.169Z,2.85
2023-02-27T18:36:21.659Z,2.58
2023-02-27T18:38:48.231Z,2.59
2023-02-27T18:41:14.738Z,2.67
2023-02-27T18:43:42.830Z,2.73
2023-02-27T18:46:11.357Z,2.85
2023-02-27T18:48:38.394Z,3.01
2023-02-27T18:51:08.255Z,2.81
2023-02-27T18:53:35.540Z,2.86
2023-02-27T18:56:03.981Z,2.89
2023-02-27T18:58:31.166Z,2.95
2023-02-27T19:00:58.380Z,2.83
2023-02-27T19:03:25.122Z,2.93
2023-02-27T19:05:53.802Z,2.71
2023-02-27T19:08:20.317Z,2.41
2023-02-27T19:10:49.525Z,2.48
2023-02-27T19:13:15.996Z,2.62
2023-02-27T19:15:42.487Z,2.62
2023-02-27T19:18:08.961Z,2.87
2023-02-27T19:20:35.458Z,2.71
2023-02-27T19:23:01.961Z,2.49
2023-02-27T19:25:28.493Z,2.66
2023-02-27T19:27:56.501Z,2.66
2023-02-27T19:30:24.016Z,2.94
2023-02-27T19:32:51.049Z,2.37
2023-02-27T19:35:18.993Z,2.32
2023-02-27T19:37:45.665Z,2.18
2023-02-27T19:40:13.129Z,2.22
2023-02-27T19:42:39.591Z,2.36
2023-02-27T19:45:06.922Z,2.23
2023-02-27T19:47:33.528Z,1.87
2023-02-27T19:49:59.988Z,2.06
2023-02-27T19:52:26.492Z,2.28
2023-02-27T19:54:53.044Z,2.57
2023-02-27T19:57:20.521Z,2.28
2023-02-27T19:59:47.107Z,2.35
2023-02-27T20:02:13.795Z,2.37
2023-02-27T20:04:40.317Z,2.21
2023-02-27T20:07:06.835Z,1.94
2023-02-27T20:09:33.340Z,1.94
2023-02-27T20:11:59.903Z,2.17
2023-02-27T20:14:26.786Z,2.21
2023-02-27T20:16:53.494Z,1.83
2023-02-27T20:19:21.785Z,1.63
2023-02-27T20:21:48.319Z,2.05
2023-02-27T20:24:15.622Z,2.10
2023-02-27T20:26:49.628Z,2.30
2023-02-27T20:29:20.010Z,1.73
2023-02-27T20:31:49.595Z,2.04
2023-02-27T20:34:20.164Z,1.90
2023-02-27T20:36:46.665Z,2.11
2023-02-27T20:39:13.186Z,2.03
2023-02-27T20:41:40.036Z,1.79
2023-02-27T20:44:08.307Z,1.73
2023-02-27T20:46:40.567Z,1.40
2023-02-27T20:49:07.965Z,1.47
2023-02-27T20:51:37.673Z,1.29
2023-02-27T20:54:08.155Z,1.32
2023-02-27T20:56:39.297Z,1.36
2023-02-27T20:59:09.425Z,1.20
2023-02-27T21:01:38.372Z,1.30
2023-02-27T21:04:05.294Z,1.48
2023-02-27T21:06:32.283Z,1.36
2023-02-27T21:09:04.301Z,1.74
2023-02-27T21:11:32.080Z,1.57
2023-02-27T21:14:04.633Z,1.57
2023-02-27T21:16:32.034Z,1.48
2023-02-27T21:18:58.894Z,1.27
2023-02-27T21:21:38.478Z,1.47
2023-02-27T21:24:08.843Z,2.05
2023-02-27T21:26:43.680Z,1.61
2023-02-27T21:29:14.856Z,1.50
2023-02-27T21:31:45.518Z,1.60
2023-02-27T21:34:24.969Z,1.79
2023-02-27T21:36:55.240Z,2.03
2023-02-27T21:39:24.893Z,1.95
2023-02-27T21:41:52.412Z,1.91
2023-02-27T21:44:22.115Z,2.36
2023-02-27T21:46:48.846Z,1.99
2023-02-27T21:49:21.454Z,2.44
2023-02-27T21:51:49.052Z,2.48
2023-02-27T21:54:17.689Z,2.39
2023-02-27T21:56:46.578Z,2.31
2023-02-27T21:59:14.173Z,2.80
2023-02-27T22:01:40.747Z,2.63
2023-02-27T22:04:07.816Z,3.23
2023-02-27T22:06:37.492Z,2.73
2023-02-27T22:09:06.024Z,2.87
2023-02-27T22:11:34.159Z,2.95
2023-02-27T22:14:02.022Z,2.89
2023-02-27T22:16:28.536Z,3.16
2023-02-27T22:18:55.171Z,2.98
2023-02-27T22:21:24.185Z,2.96
2023-02-27T22:23:50.949Z,2.89
2023-02-27T22:26:24.014Z,2.84
2023-02-27T22:28:52.458Z,3.02
2023-02-27T22:31:22.572Z,3.25
2023-02-27T22:33:52.384Z,2.90
2023-02-27T22:36:24.796Z,3.04
2023-02-27T22:38:52.139Z,3.05
2023-02-27T22:41:22.244Z,2.65
2023-02-27T22:43:49.629Z,2.84
2023-02-27T22:46:23.335Z,2.66
2023-02-27T22:48:54.209Z,2.60
2023-02-27T22:51:20.697Z,2.61
2023-02-27T22:53:47.174Z,2.95
2023-02-27T22:56:16.424Z,2.93
2023-02-27T22:58:45.212Z,2.99
2023-02-27T23:01:26.969Z,3.03
2023-02-27T23:04:00.242Z,2.84
2023-02-27T23:06:32.749Z,2.83
2023-02-27T23:09:01.138Z,3.20
2023-02-27T23:11:28.434Z,3.55
2023-02-27T23:13:55.278Z,3.72
2023-02-27T23:16:22.046Z,3.70
2023-02-27T23:18:58.209Z,3.26
2023-02-27T23:21:31.310Z,3.30
2023-02-27T23:23:58.013Z,3.22
2023-02-27T23:26:27.135Z,3.22
2023-02-27T23:28:55.029Z,3.05
2023-02-27T23:31:21.503Z,3.40
2023-02-27T23:33:48.256Z,3.59
2023-02-27T23:36:14.696Z,3.67
2023-02-27T23:38:41.380Z,3.45
2023-02-27T23:41:09.352Z,2.85
2023-02-27T23:43:36.440Z,2.76
2023-02-27T23:46:07.245Z,3.20
2023-02-27T23:48:34.432Z,3.43
2023-02-27T23:51:02.546Z,3.09
2023-02-27T23:53:29.688Z,3.15
2023-02-27T23:55:56.714Z,3.41
2023-02-27T23:58:24.006Z,3.45
